createdAt,value
2022-12-24T00:00:57.544Z,7.73
2022-12-24T00:02:02.091Z,6.07
2022-12-24T00:03:04.258Z,7.10
2022-12-24T00:04:07.805Z,7.50
2022-12-24T00:05:11.757Z,8.37
2022-12-24T00:06:18.440Z,8.47
2022-12-24T00:07:24.690Z,8.33
2022-12-24T00:08:26.559Z,7.20
2022-12-24T00:09:31.257Z,6.37
2022-12-24T00:10:34.165Z,7.43
2022-12-24T00:11:35.866Z,7.93
2022-12-24T00:12:37.649Z,5.13
2022-12-24T00:13:39.518Z,10.00
2022-12-24T00:14:41.301Z,7.27
2022-12-24T00:15:44.829Z,7.90
2022-12-24T00:16:46.298Z,6.27
2022-12-24T00:17:48.191Z,8.60
2022-12-24T00:18:49.750Z,8.17
2022-12-24T00:19:51.143Z,8.57
2022-12-24T00:20:52.602Z,9.33
2022-12-24T00:21:53.927Z,6.30
2022-12-24T00:22:55.260Z,5.40
2022-12-24T00:23:56.572Z,7.53
2022-12-24T00:24:57.872Z,7.37
2022-12-24T00:25:59.164Z,7.03
2022-12-24T00:27:00.472Z,8.90
2022-12-24T00:28:01.804Z,5.63
2022-12-24T00:29:03.175Z,74.17
2022-12-24T00:30:04.727Z,23.07
2022-12-24T00:31:13.403Z,62.70
2022-12-24T00:32:14.788Z,102.17
2022-12-24T00:33:20.807Z,52.33
2022-12-24T00:34:25.613Z,22.60
2022-12-24T00:35:27.046Z,16.93
2022-12-24T00:36:28.339Z,10.87
2022-12-24T00:37:29.667Z,9.53
2022-12-24T00:38:31.078Z,8.33
2022-12-24T00:39:32.644Z,8.77
2022-12-24T00:40:43.851Z,5.23
2022-12-24T00:41:45.354Z,8.70
2022-12-24T00:42:46.648Z,8.40
2022-12-24T00:43:48.011Z,8.43
2022-12-24T00:44:49.307Z,10.03
2022-12-24T00:45:50.658Z,6.57
2022-12-24T00:46:52.006Z,6.30
2022-12-24T00:47:53.663Z,10.50
2022-12-24T00:48:55.065Z,6.73
2022-12-24T00:49:56.337Z,10.10
2022-12-24T00:50:57.657Z,8.53
2022-12-24T00:51:59.070Z,9.53
2022-12-24T00:53:00.420Z,6.20
2022-12-24T00:54:01.887Z,8.27
2022-12-24T00:55:03.639Z,7.87
2022-12-24T00:56:05.193Z,14.10
2022-12-24T00:57:06.520Z,7.67
2022-12-24T00:58:07.845Z,8.73
2022-12-24T00:59:09.206Z,7.33
2022-12-24T01:00:11.111Z,6.63
2022-12-24T01:01:12.878Z,9.70
2022-12-24T01:02:14.597Z,10.67
2022-12-24T01:03:16.193Z,11.70
2022-12-24T01:04:36.396Z,6.80
2022-12-24T01:05:37.733Z,9.87
2022-12-24T01:06:39.057Z,9.27
2022-12-24T01:07:41.853Z,7.70
2022-12-24T01:08:43.282Z,8.20
2022-12-24T01:09:44.647Z,9.13
2022-12-24T01:10:45.983Z,9.70
2022-12-24T01:11:47.284Z,9.57
2022-12-24T01:12:48.622Z,8.17
2022-12-24T01:13:49.921Z,10.63
2022-12-24T01:14:51.325Z,9.90
2022-12-24T01:15:52.717Z,8.93
2022-12-24T01:16:54.168Z,9.07
2022-12-24T01:17:55.623Z,7.00
2022-12-24T01:18:57.027Z,8.27
2022-12-24T01:19:58.407Z,9.60
2022-12-24T01:21:01.596Z,8.23
2022-12-24T01:22:03.123Z,7.50
2022-12-24T01:23:04.458Z,9.70
2022-12-24T01:24:06.037Z,9.23
2022-12-24T01:25:07.868Z,9.93
2022-12-24T01:26:12.081Z,8.37
2022-12-24T01:27:13.414Z,8.57
2022-12-24T01:28:14.803Z,11.07
2022-12-24T01:29:16.353Z,7.83
2022-12-24T01:30:17.869Z,6.90
2022-12-24T01:31:19.454Z,7.80
2022-12-24T01:32:20.904Z,7.40
2022-12-24T01:33:22.312Z,7.90
2022-12-24T01:34:23.685Z,7.67
2022-12-24T01:35:25.038Z,7.93
2022-12-24T01:36:26.392Z,11.37
2022-12-24T01:37:27.757Z,10.13
2022-12-24T01:38:29.098Z,8.07
2022-12-24T01:39:30.484Z,7.67
2022-12-24T01:40:50.346Z,7.07
2022-12-24T01:42:10.574Z,8.47
2022-12-24T01:43:25.347Z,7.47
2022-12-24T01:44:33.180Z,7.27
2022-12-24T01:45:37.453Z,7.80
2022-12-24T01:46:38.861Z,8.97
2022-12-24T01:47:40.280Z,10.13
2022-12-24T01:48:43.885Z,7.73
2022-12-24T01:49:47.792Z,7.27
2022-12-24T01:50:50.883Z,8.73
2022-12-24T01:51:53.914Z,8.47
2022-12-24T01:52:55.489Z,8.83
2022-12-24T01:53:58.913Z,6.30
2022-12-24T01:55:03.286Z,6.93
2022-12-24T01:56:04.874Z,7.90
2022-12-24T01:57:18.207Z,5.70
2022-12-24T01:58:21.036Z,6.03
2022-12-24T01:59:22.465Z,5.80
2022-12-24T02:00:23.826Z,9.27
2022-12-24T02:01:25.254Z,7.87
2022-12-24T02:02:27.738Z,9.23
2022-12-24T02:03:29.355Z,8.80
2022-12-24T02:04:46.717Z,9.00
2022-12-24T02:05:49.716Z,9.37
2022-12-24T02:06:51.039Z,10.50
2022-12-24T02:07:52.859Z,8.53
2022-12-24T02:08:54.984Z,7.53
2022-12-24T02:09:57.411Z,6.63
2022-12-24T02:10:58.748Z,9.90
2022-12-24T02:12:00.519Z,8.67
2022-12-24T02:13:03.010Z,7.10
2022-12-24T02:14:04.455Z,12.53
2022-12-24T02:15:06.818Z,10.20
2022-12-24T02:16:14.192Z,10.50
2022-12-24T02:17:26.049Z,6.63
2022-12-24T02:18:33.888Z,9.13
2022-12-24T02:19:35.253Z,10.40
2022-12-24T02:20:47.935Z,12.00
2022-12-24T02:21:55.176Z,8.33
2022-12-24T02:23:15.443Z,8.60
2022-12-24T02:24:16.797Z,11.80
2022-12-24T02:25:23.542Z,10.27
2022-12-24T02:26:43.415Z,10.07
2022-12-24T02:27:59.612Z,9.23
2022-12-24T02:29:00.905Z,10.37
2022-12-24T02:30:05.029Z,9.90
2022-12-24T02:31:13.792Z,8.80
2022-12-24T02:32:19.095Z,6.53
2022-12-24T02:33:20.839Z,8.10
2022-12-24T02:34:29.213Z,6.40
2022-12-24T02:35:37.898Z,10.23
2022-12-24T02:36:49.114Z,9.40
2022-12-24T02:37:53.929Z,9.40
2022-12-24T02:39:02.696Z,7.57
2022-12-24T02:40:04.050Z,6.43
2022-12-24T02:41:08.937Z,10.27
2022-12-24T02:42:12.004Z,10.03
2022-12-24T02:43:15.788Z,9.23
2022-12-24T02:44:19.119Z,12.10
2022-12-24T02:45:22.815Z,12.27
2022-12-24T02:46:26.368Z,9.17
2022-12-24T02:47:28.246Z,8.00
2022-12-24T02:48:30.551Z,8.37
2022-12-24T02:49:31.882Z,10.93
2022-12-24T02:50:33.225Z,11.77
2022-12-24T02:51:34.953Z,9.03
2022-12-24T02:52:38.206Z,7.43
2022-12-24T02:53:40.418Z,11.43
2022-12-24T02:54:41.795Z,11.40
2022-12-24T02:55:52.447Z,13.27
2022-12-24T02:56:58.948Z,9.67
2022-12-24T02:58:28.017Z,8.17
2022-12-24T02:59:51.561Z,13.20
2022-12-24T03:00:55.480Z,12.83
2022-12-24T03:02:19.454Z,7.60
2022-12-24T03:03:23.728Z,9.67
2022-12-24T03:04:41.797Z,11.50
2022-12-24T03:05:51.805Z,8.87
2022-12-24T03:07:00.941Z,11.20
2022-12-24T03:08:20.197Z,8.13
2022-12-24T03:09:30.946Z,9.37
2022-12-24T03:10:46.342Z,14.70
2022-12-24T03:11:55.198Z,10.47
2022-12-24T03:12:59.344Z,8.73
2022-12-24T03:14:01.434Z,14.10
2022-12-24T03:15:04.482Z,9.53
2022-12-24T03:16:07.117Z,12.33
2022-12-24T03:17:08.897Z,11.93
2022-12-24T03:18:11.945Z,12.10
2022-12-24T03:19:13.340Z,10.37
2022-12-24T03:20:17.734Z,8.97
2022-12-24T03:21:22.592Z,11.97
2022-12-24T03:22:25.084Z,10.60
2022-12-24T03:23:26.476Z,7.00
2022-12-24T03:24:27.932Z,13.90
2022-12-24T03:25:29.384Z,10.13
2022-12-24T03:26:31.321Z,10.17
2022-12-24T03:27:33.487Z,10.10
2022-12-24T03:28:37.118Z,10.37
2022-12-24T03:29:39.846Z,11.13
2022-12-24T03:30:42.606Z,14.03
2022-12-24T03:31:45.488Z,13.83
2022-12-24T03:32:46.879Z,11.17
2022-12-24T03:33:48.717Z,12.23
2022-12-24T03:34:50.063Z,9.93
2022-12-24T03:35:51.460Z,11.23
2022-12-24T03:36:52.859Z,9.07
2022-12-24T03:37:54.155Z,10.23
2022-12-24T03:38:55.488Z,13.67
2022-12-24T03:39:56.866Z,7.07
2022-12-24T03:40:58.312Z,16.53
2022-12-24T03:41:59.720Z,17.03
2022-12-24T03:43:01.101Z,14.30
2022-12-24T03:44:02.463Z,12.57
2022-12-24T03:45:03.989Z,9.73
2022-12-24T03:46:06.407Z,10.03
2022-12-24T03:47:07.866Z,15.90
2022-12-24T03:48:09.377Z,12.10
2022-12-24T03:49:10.728Z,15.30
2022-12-24T03:50:12.069Z,11.60
2022-12-24T03:51:17.881Z,13.37
2022-12-24T03:52:19.254Z,10.40
2022-12-24T03:53:20.559Z,11.70
2022-12-24T03:54:21.933Z,14.97
2022-12-24T03:55:23.356Z,12.93
2022-12-24T03:56:24.863Z,12.87
2022-12-24T03:57:26.213Z,13.13
2022-12-24T03:58:27.646Z,15.50
2022-12-24T03:59:28.985Z,13.93
2022-12-24T04:00:30.590Z,12.20
2022-12-24T04:01:32.161Z,11.37
2022-12-24T04:02:33.760Z,13.43
2022-12-24T04:03:35.154Z,12.03
2022-12-24T04:04:37.714Z,14.90
2022-12-24T04:05:39.125Z,12.93
2022-12-24T04:06:40.503Z,15.43
2022-12-24T04:07:41.901Z,12.57
2022-12-24T04:08:43.544Z,12.63
2022-12-24T04:09:44.872Z,14.93
2022-12-24T04:10:46.187Z,14.40
2022-12-24T04:11:47.502Z,13.33
2022-12-24T04:12:48.836Z,14.83
2022-12-24T04:13:50.255Z,13.27
2022-12-24T04:14:51.619Z,15.23
2022-12-24T04:15:58.728Z,9.73
2022-12-24T04:17:00.175Z,16.47
2022-12-24T04:18:01.539Z,14.27
2022-12-24T04:19:02.948Z,15.93
2022-12-24T04:20:04.453Z,13.23
2022-12-24T04:21:06.538Z,12.70
2022-12-24T04:22:07.890Z,14.17
2022-12-24T04:23:09.257Z,13.10
2022-12-24T04:24:10.607Z,14.13
2022-12-24T04:25:11.999Z,12.80
2022-12-24T04:26:13.562Z,15.40
2022-12-24T04:27:15.523Z,15.97
2022-12-24T04:28:17.121Z,13.70
2022-12-24T04:29:18.443Z,11.10
2022-12-24T04:30:19.757Z,16.87
2022-12-24T04:31:21.163Z,10.90
2022-12-24T04:32:22.553Z,16.77
2022-12-24T04:33:23.882Z,12.73
2022-12-24T04:34:25.280Z,15.23
2022-12-24T04:35:26.667Z,14.93
2022-12-24T04:36:28.069Z,12.17
2022-12-24T04:37:29.400Z,13.43
2022-12-24T04:38:31.146Z,11.70
2022-12-24T04:39:32.481Z,14.17
2022-12-24T04:40:33.994Z,15.90
2022-12-24T04:41:35.394Z,13.33
2022-12-24T04:42:36.978Z,14.97
2022-12-24T04:43:38.354Z,14.83
2022-12-24T04:44:39.685Z,13.37
2022-12-24T04:45:41.104Z,14.77
2022-12-24T04:46:42.462Z,11.60
2022-12-24T04:47:44.181Z,10.87
2022-12-24T04:48:46.643Z,17.13
2022-12-24T04:49:47.966Z,14.70
2022-12-24T04:50:49.266Z,15.50
2022-12-24T04:51:50.633Z,14.67
2022-12-24T04:52:51.955Z,17.93
2022-12-24T04:53:53.518Z,13.20
2022-12-24T04:54:54.923Z,14.20
2022-12-24T04:55:56.565Z,14.07
2022-12-24T04:56:58.043Z,15.33
2022-12-24T04:57:59.376Z,16.47
2022-12-24T04:59:00.796Z,14.73
2022-12-24T05:00:02.517Z,14.70
2022-12-24T05:01:04.954Z,13.80
2022-12-24T05:02:06.664Z,15.40
2022-12-24T05:03:08.191Z,17.00
2022-12-24T05:04:11.050Z,18.60
2022-12-24T05:05:12.415Z,15.07
2022-12-24T05:06:15.545Z,14.23
2022-12-24T05:07:16.958Z,13.43
2022-12-24T05:08:18.254Z,18.00
2022-12-24T05:09:19.545Z,18.77
2022-12-24T05:10:20.981Z,12.17
2022-12-24T05:11:22.459Z,17.07
2022-12-24T05:12:23.843Z,16.33
2022-12-24T05:13:31.872Z,15.73
2022-12-24T05:14:38.980Z,14.90
2022-12-24T05:15:40.413Z,18.20
2022-12-24T05:16:41.844Z,14.63
2022-12-24T05:17:43.284Z,13.87
2022-12-24T05:18:44.900Z,13.80
2022-12-24T05:19:46.222Z,19.60
2022-12-24T05:20:47.983Z,14.40
2022-12-24T05:22:09.370Z,14.80
2022-12-24T05:23:34.318Z,18.77
2022-12-24T05:24:54.121Z,24.87
2022-12-24T05:26:13.953Z,15.97
2022-12-24T05:27:15.260Z,14.80
2022-12-24T05:28:16.600Z,16.70
2022-12-24T05:29:17.961Z,21.40
2022-12-24T05:30:19.359Z,17.00
2022-12-24T05:31:22.110Z,18.70
2022-12-24T05:32:23.489Z,20.07
2022-12-24T05:33:24.836Z,13.37
2022-12-24T05:34:26.193Z,17.07
2022-12-24T05:35:27.551Z,16.80
2022-12-24T05:36:29.246Z,18.47
2022-12-24T05:37:30.734Z,21.03
2022-12-24T05:38:32.057Z,16.97
2022-12-24T05:39:33.366Z,16.30
2022-12-24T05:40:34.705Z,16.00
2022-12-24T05:41:36.038Z,13.97
2022-12-24T05:42:37.561Z,18.97
2022-12-24T05:43:39.070Z,25.73
2022-12-24T05:44:40.387Z,17.97
2022-12-24T05:45:41.820Z,15.70
2022-12-24T05:46:43.763Z,18.63
2022-12-24T05:47:45.161Z,24.73
2022-12-24T05:48:46.905Z,21.27
2022-12-24T05:49:48.281Z,19.60
2022-12-24T05:50:50.518Z,18.67
2022-12-24T05:51:51.878Z,19.57
2022-12-24T05:52:53.273Z,20.10
2022-12-24T05:53:54.695Z,20.20
2022-12-24T05:54:56.027Z,23.43
2022-12-24T05:56:02.714Z,16.77
2022-12-24T05:57:04.151Z,16.40
2022-12-24T05:58:05.489Z,20.50
2022-12-24T05:59:06.859Z,21.17
2022-12-24T06:00:08.519Z,20.40
2022-12-24T06:01:14.214Z,15.17
2022-12-24T06:02:15.592Z,19.63
2022-12-24T06:03:16.907Z,13.93
2022-12-24T06:04:21.734Z,16.43
2022-12-24T06:05:28.046Z,17.97
2022-12-24T06:06:29.456Z,25.10
2022-12-24T06:07:30.871Z,16.50
2022-12-24T06:08:32.946Z,18.50
2022-12-24T06:09:34.409Z,19.70
2022-12-24T06:10:35.817Z,19.03
2022-12-24T06:11:37.757Z,16.70
2022-12-24T06:12:39.176Z,21.57
2022-12-24T06:13:40.974Z,19.63
2022-12-24T06:14:42.350Z,16.60
2022-12-24T06:15:43.807Z,21.30
2022-12-24T06:16:45.225Z,21.17
2022-12-24T06:17:46.605Z,13.93
2022-12-24T06:18:48.376Z,22.47
2022-12-24T06:19:49.732Z,17.47
2022-12-24T06:20:52.116Z,23.13
2022-12-24T06:21:53.472Z,21.70
2022-12-24T06:22:54.844Z,18.47
2022-12-24T06:23:56.260Z,22.17
2022-12-24T06:24:57.614Z,18.77
2022-12-24T06:26:01.016Z,12.90
2022-12-24T06:27:02.696Z,22.80
2022-12-24T06:28:04.146Z,16.17
2022-12-24T06:29:06.125Z,18.93
2022-12-24T06:30:07.872Z,15.70
2022-12-24T06:31:11.777Z,19.40
2022-12-24T06:32:13.179Z,18.40
2022-12-24T06:33:14.655Z,21.03
2022-12-24T06:34:16.024Z,19.77
2022-12-24T06:35:17.342Z,24.43
2022-12-24T06:36:23.187Z,16.10
2022-12-24T06:37:24.537Z,16.67
2022-12-24T06:38:26.189Z,22.33
2022-12-24T06:39:27.535Z,19.53
2022-12-24T06:40:28.968Z,18.13
2022-12-24T06:41:30.407Z,19.07
2022-12-24T06:42:31.990Z,19.53
2022-12-24T06:43:34.724Z,24.63
2022-12-24T06:44:36.074Z,16.63
2022-12-24T06:45:37.743Z,17.87
2022-12-24T06:46:39.152Z,18.20
2022-12-24T06:47:40.538Z,18.17
2022-12-24T06:48:42.662Z,21.07
2022-12-24T06:49:44.383Z,19.77
2022-12-24T06:50:45.905Z,18.33
2022-12-24T06:51:47.281Z,19.47
2022-12-24T06:52:48.642Z,19.30
2022-12-24T06:53:52.760Z,17.37
2022-12-24T06:54:54.083Z,16.60
2022-12-24T06:56:02.914Z,18.83
2022-12-24T06:57:04.273Z,21.30
2022-12-24T06:58:06.001Z,21.47
2022-12-24T06:59:07.307Z,22.80
2022-12-24T07:00:09.435Z,20.93
2022-12-24T07:01:12.565Z,18.30
2022-12-24T07:02:14.259Z,23.40
2022-12-24T07:03:15.662Z,24.63
2022-12-24T07:04:20.334Z,19.23
2022-12-24T07:05:22.104Z,19.73
2022-12-24T07:06:28.122Z,23.53
2022-12-24T07:07:29.449Z,18.07
2022-12-24T07:08:33.568Z,16.63
2022-12-24T07:09:34.904Z,18.17
2022-12-24T07:10:36.206Z,18.60
2022-12-24T07:11:37.573Z,21.67
2022-12-24T07:12:38.931Z,15.37
2022-12-24T07:13:40.224Z,15.70
2022-12-24T07:14:41.544Z,21.73
2022-12-24T07:15:44.407Z,19.10
2022-12-24T07:16:45.834Z,20.80
2022-12-24T07:17:47.427Z,17.03
2022-12-24T07:18:48.877Z,21.90
2022-12-24T07:19:50.288Z,21.63
2022-12-24T07:20:51.668Z,18.80
2022-12-24T07:21:52.981Z,19.33
2022-12-24T07:22:54.416Z,22.77
2022-12-24T07:23:55.713Z,15.23
2022-12-24T07:24:57.038Z,18.10
2022-12-24T07:26:02.563Z,20.20
2022-12-24T07:27:03.952Z,19.90
2022-12-24T07:28:05.281Z,23.00
2022-12-24T07:29:06.624Z,15.87
2022-12-24T07:30:08.711Z,15.33
2022-12-24T07:31:10.159Z,15.80
2022-12-24T07:32:11.563Z,18.33
2022-12-24T07:33:12.923Z,23.83
2022-12-24T07:34:14.322Z,15.40
2022-12-24T07:35:15.733Z,23.87
2022-12-24T07:36:21.396Z,13.83
2022-12-24T07:37:22.715Z,19.20
2022-12-24T07:38:24.131Z,22.20
2022-12-24T07:39:25.641Z,20.80
2022-12-24T07:40:26.940Z,17.13
2022-12-24T07:41:28.258Z,14.93
2022-12-24T07:42:29.620Z,15.93
2022-12-24T07:43:32.642Z,23.03
2022-12-24T07:44:34.200Z,15.77
2022-12-24T07:45:35.518Z,19.67
2022-12-24T07:46:36.884Z,18.97
2022-12-24T07:47:38.242Z,19.80
2022-12-24T07:48:39.561Z,20.83
2022-12-24T07:49:40.917Z,14.20
2022-12-24T07:50:42.446Z,21.97
2022-12-24T07:51:43.774Z,20.70
2022-12-24T07:52:45.753Z,19.53
2022-12-24T07:53:50.088Z,20.60
2022-12-24T07:54:51.643Z,23.17
2022-12-24T07:55:53.007Z,21.50
2022-12-24T07:56:54.878Z,17.40
2022-12-24T07:57:56.228Z,19.57
2022-12-24T07:58:57.679Z,18.93
2022-12-24T07:59:58.954Z,22.10
2022-12-24T08:01:00.754Z,17.77
2022-12-24T08:02:02.316Z,22.50
2022-12-24T08:03:04.008Z,18.60
2022-12-24T08:04:05.607Z,25.73
2022-12-24T08:05:07.179Z,18.80
2022-12-24T08:06:09.809Z,24.17
2022-12-24T08:07:11.180Z,22.53
2022-12-24T08:08:12.560Z,27.03
2022-12-24T08:09:15.163Z,21.10
2022-12-24T08:10:16.484Z,20.17
2022-12-24T08:11:17.859Z,22.87
2022-12-24T08:12:19.182Z,32.27
2022-12-24T08:13:20.524Z,22.77
2022-12-24T08:14:21.983Z,26.23
2022-12-24T08:15:23.322Z,20.17
2022-12-24T08:16:24.745Z,21.20
2022-12-24T08:17:31.965Z,19.30
2022-12-24T08:18:33.808Z,21.90
2022-12-24T08:19:35.566Z,21.67
2022-12-24T08:20:40.351Z,21.77
2022-12-24T08:21:41.934Z,19.93
2022-12-24T08:22:43.537Z,23.97
2022-12-24T08:23:46.281Z,23.87
2022-12-24T08:24:47.710Z,20.43
2022-12-24T08:25:49.289Z,17.53
2022-12-24T08:26:50.607Z,14.87
2022-12-24T08:27:52.207Z,15.70
2022-12-24T08:28:53.611Z,18.63
2022-12-24T08:29:54.905Z,20.13
2022-12-24T08:30:56.201Z,21.10
2022-12-24T08:31:57.611Z,20.03
2022-12-24T08:32:59.054Z,26.50
2022-12-24T08:34:00.407Z,21.57
2022-12-24T08:35:01.716Z,15.93
2022-12-24T08:36:03.631Z,17.60
2022-12-24T08:37:04.915Z,27.13
2022-12-24T08:38:06.255Z,24.30
2022-12-24T08:39:08.899Z,24.60
2022-12-24T08:40:10.611Z,20.83
2022-12-24T08:41:12.035Z,16.27
2022-12-24T08:42:14.876Z,16.80
2022-12-24T08:43:22.786Z,21.20
2022-12-24T08:44:24.098Z,19.53
2022-12-24T08:45:25.429Z,22.00
2022-12-24T08:46:26.876Z,17.53
2022-12-24T08:47:28.224Z,19.77
2022-12-24T08:48:29.654Z,20.60
2022-12-24T08:49:30.958Z,18.67
2022-12-24T08:50:32.315Z,19.03
2022-12-24T08:51:33.703Z,17.50
2022-12-24T08:52:35.163Z,22.47
2022-12-24T08:53:36.943Z,18.80
2022-12-24T08:54:38.228Z,19.93
2022-12-24T08:55:39.619Z,19.67
2022-12-24T08:56:40.963Z,19.20
2022-12-24T08:57:42.340Z,21.13
2022-12-24T08:58:43.720Z,18.70
2022-12-24T08:59:45.100Z,22.73
2022-12-24T09:00:46.456Z,14.30
2022-12-24T09:01:48.150Z,17.20
2022-12-24T09:02:49.784Z,18.67
2022-12-24T09:03:51.262Z,18.90
2022-12-24T09:04:52.700Z,20.37
2022-12-24T09:05:54.071Z,19.40
2022-12-24T09:06:55.364Z,15.70
2022-12-24T09:07:56.850Z,16.77
2022-12-24T09:08:58.320Z,19.70
2022-12-24T09:09:59.600Z,19.70
2022-12-24T09:11:08.438Z,13.60
2022-12-24T09:12:10.106Z,16.73
2022-12-24T09:13:11.480Z,17.67
2022-12-24T09:14:12.766Z,18.50
2022-12-24T09:15:14.384Z,16.20
2022-12-24T09:16:15.861Z,25.00
2022-12-24T09:17:22.901Z,18.80
2022-12-24T09:18:27.589Z,13.57
2022-12-24T09:19:28.938Z,21.10
2022-12-24T09:20:30.260Z,19.90
2022-12-24T09:21:31.657Z,17.20
2022-12-24T09:22:37.171Z,21.23
2022-12-24T09:23:42.024Z,18.57
2022-12-24T09:24:43.370Z,16.83
2022-12-24T09:25:44.769Z,24.23
2022-12-24T09:26:55.640Z,22.53
2022-12-24T09:27:58.939Z,21.90
2022-12-24T09:29:03.175Z,18.47
2022-12-24T09:30:05.283Z,19.60
2022-12-24T09:31:06.688Z,17.33
2022-12-24T09:32:08.258Z,24.00
2022-12-24T09:33:09.621Z,16.10
2022-12-24T09:34:10.936Z,21.07
2022-12-24T09:35:12.237Z,21.97
2022-12-24T09:36:13.893Z,21.67
2022-12-24T09:37:15.283Z,22.90
2022-12-24T09:38:16.650Z,19.97
2022-12-24T09:39:17.989Z,17.63
2022-12-24T09:40:25.671Z,22.63
2022-12-24T09:41:33.219Z,22.50
2022-12-24T09:42:53.980Z,22.87
2022-12-24T09:44:12.000Z,18.37
2022-12-24T09:45:24.411Z,16.73
2022-12-24T09:46:28.400Z,18.73
2022-12-24T09:47:33.166Z,19.70
2022-12-24T09:48:36.427Z,21.17
2022-12-24T09:49:40.313Z,15.27
2022-12-24T09:50:45.979Z,19.57
2022-12-24T09:51:49.702Z,16.87
2022-12-24T09:52:52.629Z,18.63
2022-12-24T09:53:56.921Z,21.87
2022-12-24T09:55:08.068Z,20.13
2022-12-24T09:56:17.257Z,18.63
2022-12-24T09:57:25.849Z,18.00
2022-12-24T09:58:30.627Z,21.27
2022-12-24T09:59:52.314Z,17.43
2022-12-24T10:00:54.250Z,19.33
2022-12-24T10:01:55.871Z,16.80
2022-12-24T10:02:57.797Z,18.33
2022-12-24T10:04:04.354Z,21.67
2022-12-24T10:05:10.004Z,21.90
2022-12-24T10:06:29.096Z,14.17
2022-12-24T10:07:55.240Z,18.57
2022-12-24T10:09:08.789Z,17.23
2022-12-24T10:10:42.944Z,15.17
2022-12-24T10:11:54.031Z,21.30
2022-12-24T10:13:04.884Z,18.93
2022-12-24T10:14:14.519Z,19.60
2022-12-24T10:15:31.194Z,17.17
2022-12-24T10:16:52.872Z,20.47
2022-12-24T10:18:12.902Z,17.70
2022-12-24T10:19:22.239Z,17.03
2022-12-24T10:20:29.367Z,21.50
2022-12-24T10:21:42.932Z,24.00
2022-12-24T10:22:47.011Z,16.27
2022-12-24T10:23:55.110Z,12.13
2022-12-24T10:25:03.663Z,22.00
2022-12-24T10:26:12.663Z,21.73
2022-12-24T10:27:15.061Z,22.17
2022-12-24T10:28:22.037Z,23.37
2022-12-24T10:29:32.156Z,22.00
2022-12-24T10:30:33.795Z,21.87
2022-12-24T10:31:39.457Z,20.93
2022-12-24T10:32:41.612Z,20.73
2022-12-24T10:33:49.856Z,18.10
2022-12-24T10:34:57.203Z,24.47
2022-12-24T10:35:58.682Z,19.87
2022-12-24T10:37:02.850Z,18.40
2022-12-24T10:38:04.400Z,18.43
2022-12-24T10:39:13.366Z,17.47
2022-12-24T10:40:27.155Z,17.30
2022-12-24T10:41:29.610Z,21.17
2022-12-24T10:42:38.277Z,16.30
2022-12-24T10:43:42.079Z,17.83
2022-12-24T10:44:45.943Z,17.00
2022-12-24T10:45:49.683Z,19.87
2022-12-24T10:46:51.077Z,21.73
2022-12-24T10:47:58.746Z,19.33
2022-12-24T10:49:04.238Z,17.83
2022-12-24T10:50:21.044Z,18.47
2022-12-24T10:51:38.316Z,20.00
2022-12-24T10:52:42.225Z,21.53
2022-12-24T10:53:54.428Z,18.63
2022-12-24T10:55:08.271Z,19.50
2022-12-24T10:56:15.143Z,15.67
2022-12-24T10:57:27.059Z,19.50
2022-12-24T10:58:28.516Z,19.07
2022-12-24T10:59:31.580Z,16.00
2022-12-24T11:00:36.238Z,18.17
2022-12-24T11:01:47.878Z,19.00
2022-12-24T11:02:49.827Z,17.67
2022-12-24T11:04:04.293Z,18.13
2022-12-24T11:05:07.301Z,18.70
2022-12-24T11:06:10.363Z,15.43
2022-12-24T11:07:18.686Z,19.73
2022-12-24T11:08:20.463Z,22.73
2022-12-24T11:09:24.054Z,17.40
2022-12-24T11:10:25.604Z,22.23
2022-12-24T11:11:34.464Z,20.57
2022-12-24T11:12:38.010Z,18.63
2022-12-24T11:13:53.002Z,17.20
2022-12-24T11:15:02.025Z,21.07
2022-12-24T11:16:12.530Z,20.97
2022-12-24T11:17:22.252Z,20.70
2022-12-24T11:18:26.259Z,19.13
2022-12-24T11:19:33.313Z,15.40
2022-12-24T11:20:38.907Z,18.97
2022-12-24T11:21:43.113Z,21.23
2022-12-24T11:22:48.308Z,14.73
2022-12-24T11:23:51.607Z,21.50
2022-12-24T11:25:04.974Z,18.07
2022-12-24T11:26:06.400Z,23.17
2022-12-24T11:27:26.655Z,17.27
2022-12-24T11:28:31.736Z,18.03
2022-12-24T11:29:33.106Z,19.53
2022-12-24T11:30:35.370Z,19.20
2022-12-24T11:31:37.941Z,18.53
2022-12-24T11:32:39.443Z,18.83
2022-12-24T11:33:48.106Z,15.90
2022-12-24T11:34:49.573Z,18.73
2022-12-24T11:35:53.123Z,16.00
2022-12-24T11:36:57.155Z,17.00
2022-12-24T11:38:01.732Z,15.07
2022-12-24T11:39:03.159Z,16.10
2022-12-24T11:40:04.779Z,17.97
2022-12-24T11:41:08.267Z,20.53
2022-12-24T11:42:23.657Z,20.10
2022-12-24T11:43:25.299Z,15.03
2022-12-24T11:44:27.446Z,15.20
2022-12-24T11:45:29.954Z,18.53
2022-12-24T11:46:38.735Z,16.70
2022-12-24T11:47:40.635Z,17.80
2022-12-24T11:48:41.999Z,17.63
2022-12-24T11:49:43.352Z,22.10
2022-12-24T11:50:55.122Z,15.20
2022-12-24T11:52:11.249Z,14.97
2022-12-24T11:53:20.429Z,15.53
2022-12-24T11:54:28.445Z,12.30
2022-12-24T11:55:32.525Z,16.83
2022-12-24T11:56:34.531Z,15.50
2022-12-24T11:57:44.928Z,17.33
2022-12-24T11:58:48.974Z,19.17
2022-12-24T11:59:51.615Z,13.67
2022-12-24T12:00:57.530Z,17.50
2022-12-24T12:01:58.862Z,17.57
2022-12-24T12:03:02.480Z,18.73
2022-12-24T12:04:11.629Z,19.23
2022-12-24T12:05:16.101Z,13.07
2022-12-24T12:06:29.797Z,15.53
2022-12-24T12:07:33.565Z,18.13
2022-12-24T12:08:35.527Z,14.37
2022-12-24T12:09:42.066Z,15.33
2022-12-24T12:10:44.312Z,11.17
2022-12-24T12:11:48.411Z,17.30
2022-12-24T12:12:56.728Z,16.93
2022-12-24T12:13:59.832Z,13.90
2022-12-24T12:15:06.096Z,15.20
2022-12-24T12:16:26.390Z,20.57
2022-12-24T12:17:36.943Z,15.40
2022-12-24T12:18:39.853Z,13.57
2022-12-24T12:19:56.090Z,15.33
2022-12-24T12:21:02.133Z,14.67
2022-12-24T12:22:05.064Z,15.77
2022-12-24T12:23:06.389Z,13.77
2022-12-24T12:24:12.943Z,15.80
2022-12-24T12:25:20.879Z,16.30
2022-12-24T12:26:26.220Z,15.77
2022-12-24T12:27:31.336Z,11.57
2022-12-24T12:28:41.328Z,18.50
2022-12-24T12:29:45.923Z,17.37
2022-12-24T12:30:54.180Z,14.37
2022-12-24T12:32:08.438Z,14.83
2022-12-24T12:33:19.075Z,14.73
2022-12-24T12:34:20.401Z,16.60
2022-12-24T12:35:24.917Z,12.93
2022-12-24T12:36:32.185Z,14.43
2022-12-24T12:37:38.930Z,18.90
2022-12-24T12:38:40.649Z,16.83
2022-12-24T12:39:42.408Z,16.80
2022-12-24T12:40:56.345Z,16.60
2022-12-24T12:41:57.707Z,16.50
2022-12-24T12:43:14.784Z,19.33
2022-12-24T12:44:22.183Z,20.03
2022-12-24T12:45:23.572Z,17.83
2022-12-24T12:46:30.933Z,20.70
2022-12-24T12:47:46.993Z,16.67
2022-12-24T12:49:02.542Z,16.77
2022-12-24T12:50:24.869Z,20.47
2022-12-24T12:51:31.109Z,16.10
2022-12-24T12:52:51.365Z,22.27
2022-12-24T12:54:11.692Z,18.03
2022-12-24T12:55:26.943Z,19.40
2022-12-24T12:56:30.875Z,16.57
2022-12-24T12:57:35.001Z,15.63
2022-12-24T12:58:46.313Z,22.23
2022-12-24T12:59:51.549Z,19.97
2022-12-24T13:00:54.944Z,17.07
2022-12-24T13:02:01.506Z,16.73
2022-12-24T13:03:28.655Z,20.87
2022-12-24T13:04:48.805Z,19.77
2022-12-24T13:05:56.301Z,18.53
2022-12-24T13:07:16.530Z,21.90
2022-12-24T13:08:31.333Z,21.00
2022-12-24T13:09:54.916Z,18.60
2022-12-24T13:11:05.237Z,17.60
2022-12-24T13:12:25.530Z,19.40
2022-12-24T13:13:45.592Z,14.80
2022-12-24T13:15:05.738Z,15.17
2022-12-24T13:16:27.312Z,16.37
2022-12-24T13:17:47.565Z,16.97
2022-12-24T13:19:07.660Z,19.17
2022-12-24T13:20:16.167Z,14.37
2022-12-24T13:21:22.724Z,16.77
2022-12-24T13:22:24.128Z,16.77
2022-12-24T13:23:26.521Z,22.43
2022-12-24T13:24:28.882Z,15.00
2022-12-24T13:25:37.881Z,17.67
2022-12-24T13:26:40.260Z,17.10
2022-12-24T13:27:41.599Z,21.17
2022-12-24T13:28:43.199Z,18.00
2022-12-24T13:29:44.563Z,18.97
2022-12-24T13:30:46.809Z,19.10
2022-12-24T13:31:48.222Z,18.23
2022-12-24T13:32:51.141Z,21.63
2022-12-24T13:33:56.953Z,19.07
2022-12-24T13:35:01.795Z,18.27
2022-12-24T13:36:05.319Z,18.47
2022-12-24T13:37:20.442Z,20.10
2022-12-24T13:38:33.427Z,20.57
2022-12-24T13:40:25.995Z,18.10
2022-12-24T13:41:38.601Z,17.13
2022-12-24T13:42:50.266Z,19.37
2022-12-24T13:44:06.960Z,16.73
2022-12-24T13:45:27.053Z,16.67
2022-12-24T13:46:46.926Z,16.13
2022-12-24T13:47:49.385Z,14.67
2022-12-24T13:48:50.857Z,15.60
2022-12-24T13:49:53.206Z,13.67
2022-12-24T13:50:56.008Z,17.47
2022-12-24T13:52:06.639Z,13.80
2022-12-24T13:53:26.470Z,14.03
2022-12-24T13:54:28.510Z,18.53
2022-12-24T13:55:30.347Z,16.20